createdAt,value
2017-09-15T00:00:02.145Z,9.50
2017-09-15T00:02:30.369Z,9.47
2017-09-15T00:04:57.829Z,11.80
2017-09-15T00:07:25.310Z,11.43
2017-09-15T00:09:52.786Z,12.10
2017-09-15T00:12:21.144Z,10.80
2017-09-15T00:14:48.614Z,13.17
2017-09-15T00:17:16.930Z,12.63
2017-09-15T00:19:44.400Z,13.00
2017-09-15T00:22:11.898Z,12.80
2017-09-15T00:24:39.357Z,13.30
2017-09-15T00:27:06.814Z,15.00
2017-09-15T00:29:35.897Z,12.60
2017-09-15T00:32:03.387Z,11.70
2017-09-15T00:34:30.862Z,14.47
2017-09-15T00:36:58.346Z,13.07
2017-09-15T00:39:25.797Z,11.63
2017-09-15T00:41:53.283Z,13.60
2017-09-15T00:44:20.741Z,11.30
2017-09-15T00:46:48.250Z,12.10
2017-09-15T00:49:15.733Z,11.20
2017-09-15T00:51:43.218Z,11.90
2017-09-15T00:54:10.720Z,11.20
2017-09-15T00:56:38.962Z,11.53
2017-09-15T00:59:06.421Z,11.07
2017-09-15T01:01:33.907Z,12.63
2017-09-15T01:04:02.137Z,14.10
2017-09-15T01:06:29.612Z,11.80
2017-09-15T01:08:57.118Z,10.80
2017-09-15T01:11:24.630Z,11.90
2017-09-15T01:13:52.091Z,13.27
2017-09-15T01:16:19.640Z,15.53
2017-09-15T01:18:47.279Z,13.67
2017-09-15T01:21:14.869Z,14.43
2017-09-15T01:23:42.343Z,13.17
2017-09-15T01:26:09.885Z,12.30
2017-09-15T01:28:37.382Z,13.90
2017-09-15T01:31:05.610Z,13.77
2017-09-15T01:33:33.061Z,15.43
2017-09-15T01:36:00.553Z,14.90
2017-09-15T01:38:28.018Z,15.63
2017-09-15T01:40:56.259Z,16.17
2017-09-15T01:43:23.739Z,13.33
2017-09-15T01:45:51.247Z,14.37
2017-09-15T01:48:18.767Z,15.07
2017-09-15T01:50:46.285Z,13.93
2017-09-15T01:53:13.810Z,15.90
2017-09-15T01:55:42.077Z,12.03
2017-09-15T01:58:10.320Z,15.77
2017-09-15T02:00:37.805Z,13.40
2017-09-15T02:03:05.270Z,12.87
2017-09-15T02:05:32.778Z,15.67
2017-09-15T02:08:00.257Z,14.40
2017-09-15T02:10:27.722Z,14.37
2017-09-15T02:12:55.193Z,16.47
2017-09-15T02:15:24.345Z,15.13
2017-09-15T02:17:51.830Z,13.97
2017-09-15T02:20:19.311Z,15.20
2017-09-15T02:22:46.771Z,15.13
2017-09-15T02:25:15.033Z,13.70
2017-09-15T02:27:42.481Z,14.87
2017-09-15T02:30:10.009Z,15.50
2017-09-15T02:32:37.486Z,16.00
2017-09-15T02:35:04.967Z,15.17
2017-09-15T02:37:32.454Z,16.00
2017-09-15T02:40:00.743Z,15.00
2017-09-15T02:42:28.226Z,16.33
2017-09-15T02:44:55.718Z,11.50
2017-09-15T02:47:23.169Z,15.90
2017-09-15T02:49:50.646Z,16.87
2017-09-15T02:52:18.102Z,15.47
2017-09-15T02:54:45.570Z,16.53
2017-09-15T02:57:13.056Z,12.53
2017-09-15T02:59:40.609Z,17.50
2017-09-15T03:02:08.110Z,16.07
2017-09-15T03:04:35.593Z,16.03
2017-09-15T03:07:03.082Z,15.57
2017-09-15T03:09:30.538Z,16.67
2017-09-15T03:11:58.157Z,16.80
2017-09-15T03:14:25.633Z,16.20
2017-09-15T03:16:53.085Z,17.13
2017-09-15T03:19:20.723Z,17.97
2017-09-15T03:21:48.181Z,21.33
2017-09-15T03:24:15.766Z,18.90
2017-09-15T03:26:43.235Z,19.80
2017-09-15T03:29:11.557Z,19.97
2017-09-15T03:31:39.029Z,18.57
2017-09-15T03:34:06.481Z,20.57
2017-09-15T03:36:34.049Z,21.60
2017-09-15T03:39:01.520Z,19.53
2017-09-15T03:41:29.005Z,20.87
2017-09-15T03:43:56.525Z,19.40
2017-09-15T03:46:24.014Z,20.70
2017-09-15T03:48:51.464Z,20.50
2017-09-15T03:51:19.113Z,20.20
2017-09-15T03:53:46.565Z,20.53
2017-09-15T03:56:14.038Z,21.27
2017-09-15T03:58:41.546Z,18.77
2017-09-15T04:01:08.998Z,19.60
2017-09-15T04:03:36.453Z,19.77
2017-09-15T04:06:04.053Z,20.27
2017-09-15T04:08:32.551Z,22.17
2017-09-15T04:11:00.120Z,17.50
2017-09-15T04:13:27.638Z,20.00
2017-09-15T04:15:55.171Z,18.90
2017-09-15T04:18:23.404Z,19.43
2017-09-15T04:20:50.867Z,21.77
2017-09-15T04:23:18.345Z,21.27
2017-09-15T04:25:45.805Z,19.60
2017-09-15T04:28:14.101Z,19.80
2017-09-15T04:30:42.325Z,19.57
2017-09-15T04:33:09.781Z,20.10
2017-09-15T04:35:37.278Z,20.80
2017-09-15T04:38:05.502Z,19.47
2017-09-15T04:40:32.974Z,20.60
2017-09-15T04:43:00.488Z,17.70
2017-09-15T04:45:28.710Z,16.10
2017-09-15T04:47:56.177Z,17.80
2017-09-15T04:50:23.774Z,20.10
2017-09-15T04:52:51.257Z,20.77
2017-09-15T04:55:18.725Z,19.90
2017-09-15T04:57:46.211Z,20.17
2017-09-15T05:00:14.437Z,21.93
2017-09-15T05:02:41.894Z,19.87
2017-09-15T05:05:09.385Z,18.70
2017-09-15T05:07:36.841Z,20.20
2017-09-15T05:10:04.329Z,20.87
2017-09-15T05:12:31.789Z,21.77
2017-09-15T05:14:59.241Z,18.93
2017-09-15T05:17:26.725Z,20.20
2017-09-15T05:19:54.249Z,19.23
2017-09-15T05:22:22.821Z,19.90
2017-09-15T05:24:50.585Z,18.67
2017-09-15T05:27:18.065Z,22.57
2017-09-15T05:29:46.094Z,20.73
2017-09-15T05:32:13.621Z,19.63
2017-09-15T05:34:41.110Z,21.23
2017-09-15T05:37:08.582Z,19.20
2017-09-15T05:39:36.074Z,21.80
2017-09-15T05:42:03.534Z,21.43
2017-09-15T05:44:30.985Z,20.00
2017-09-15T05:46:58.510Z,14.43
2017-09-15T05:49:25.966Z,18.07
2017-09-15T05:51:53.424Z,19.40
2017-09-15T05:54:20.903Z,21.33
2017-09-15T05:56:48.354Z,21.00
2017-09-15T05:59:15.846Z,27.60
2017-09-15T06:01:43.309Z,27.57
2017-09-15T06:04:10.763Z,25.63
2017-09-15T06:06:38.241Z,24.53
2017-09-15T06:09:05.719Z,26.43
2017-09-15T06:11:33.214Z,29.60
2017-09-15T06:14:00.678Z,26.70
2017-09-15T06:16:28.145Z,31.77
2017-09-15T06:18:55.654Z,28.50
2017-09-15T06:21:23.156Z,30.20
2017-09-15T06:23:50.604Z,29.97
2017-09-15T06:26:18.065Z,27.30
2017-09-15T06:28:45.559Z,32.63
2017-09-15T06:31:13.015Z,33.33
2017-09-15T06:33:40.474Z,30.10
2017-09-15T06:36:07.955Z,32.80
2017-09-15T06:38:35.409Z,34.30
2017-09-15T06:41:03.741Z,35.43
2017-09-15T06:43:31.959Z,33.73
2017-09-15T06:45:59.439Z,32.47
2017-09-15T06:48:26.994Z,32.43
2017-09-15T06:50:54.490Z,34.30
2017-09-15T06:53:21.963Z,29.40
2017-09-15T06:55:49.450Z,30.60
2017-09-15T06:58:16.921Z,26.70
2017-09-15T07:00:44.376Z,29.03
2017-09-15T07:03:11.862Z,26.17
2017-09-15T07:05:39.347Z,28.10
2017-09-15T07:08:06.808Z,25.60
2017-09-15T07:10:34.331Z,26.47
2017-09-15T07:13:01.809Z,23.70
2017-09-15T07:15:29.274Z,24.43
2017-09-15T07:17:56.782Z,24.97
2017-09-15T07:20:24.248Z,22.03
2017-09-15T07:22:51.732Z,22.40
2017-09-15T07:25:19.185Z,22.70
2017-09-15T07:27:46.677Z,24.20
2017-09-15T07:30:14.131Z,23.40
2017-09-15T07:32:41.594Z,25.20
2017-09-15T07:35:09.076Z,26.27
2017-09-15T07:37:37.322Z,23.63
2017-09-15T07:40:04.839Z,25.27
2017-09-15T07:42:32.324Z,27.27
2017-09-15T07:44:59.777Z,29.40
2017-09-15T07:47:27.252Z,31.07
2017-09-15T07:49:54.740Z,28.27
2017-09-15T07:52:22.289Z,32.83
2017-09-15T07:54:49.750Z,29.47
2017-09-15T07:57:17.302Z,28.50
2017-09-15T07:59:44.785Z,28.50
2017-09-15T08:02:12.250Z,29.47
2017-09-15T08:04:39.701Z,27.30
2017-09-15T08:07:07.401Z,28.70
2017-09-15T08:09:35.952Z,30.17
2017-09-15T08:12:04.189Z,27.63
2017-09-15T08:14:32.445Z,29.70
2017-09-15T08:16:59.907Z,33.00
2017-09-15T08:19:27.397Z,31.50
2017-09-15T08:21:54.866Z,32.10
2017-09-15T08:24:22.321Z,32.50
2017-09-15T08:26:49.827Z,36.83
2017-09-15T08:29:17.285Z,37.00
2017-09-15T08:31:44.742Z,36.90
2017-09-15T08:34:12.237Z,37.83
2017-09-15T08:36:39.700Z,40.90
2017-09-15T08:39:07.189Z,36.10
2017-09-15T08:41:34.651Z,36.97
2017-09-15T08:44:02.106Z,41.00
2017-09-15T08:46:29.597Z,34.60
2017-09-15T08:48:57.058Z,37.37
2017-09-15T08:51:24.515Z,37.90
2017-09-15T08:53:52.014Z,30.97
2017-09-15T08:56:19.474Z,27.80
2017-09-15T08:58:46.928Z,34.20
2017-09-15T09:01:14.418Z,33.03
2017-09-15T09:03:42.655Z,31.47
2017-09-15T09:06:10.113Z,34.60
2017-09-15T09:08:37.621Z,31.00
2017-09-15T09:11:05.119Z,29.33
2017-09-15T09:13:32.574Z,27.07
2017-09-15T09:16:00.039Z,23.23
2017-09-15T09:18:27.517Z,26.27
2017-09-15T09:20:54.982Z,25.00
2017-09-15T09:23:22.475Z,25.13
2017-09-15T09:25:49.933Z,25.10
2017-09-15T09:28:17.390Z,24.00
2017-09-15T09:30:44.870Z,23.90
2017-09-15T09:33:12.333Z,28.23
2017-09-15T09:35:39.803Z,28.67
2017-09-15T09:38:07.306Z,25.30
2017-09-15T09:40:35.558Z,24.47
2017-09-15T09:43:03.116Z,26.80
2017-09-15T09:45:30.577Z,23.80
2017-09-15T09:47:58.062Z,23.23
2017-09-15T09:50:25.554Z,22.33
2017-09-15T09:52:53.017Z,21.87
2017-09-15T09:55:20.472Z,21.50
2017-09-15T09:57:47.958Z,20.93
2017-09-15T10:00:15.450Z,19.97
2017-09-15T10:02:43.686Z,19.73
2017-09-15T10:05:11.223Z,18.50
2017-09-15T10:07:38.739Z,16.53
2017-09-15T10:10:06.193Z,16.27
2017-09-15T10:12:34.422Z,16.07
2017-09-15T10:15:01.905Z,15.10
2017-09-15T10:17:29.401Z,15.83
2017-09-15T10:19:56.860Z,14.10
2017-09-15T10:22:24.327Z,8.87
2017-09-15T10:24:51.815Z,13.93
2017-09-15T10:27:19.334Z,14.43
2017-09-15T10:29:47.607Z,12.10
2017-09-15T10:32:15.831Z,13.83
2017-09-15T10:34:43.341Z,14.10
2017-09-15T10:37:10.796Z,13.00
2017-09-15T10:39:39.018Z,12.87
2017-09-15T10:42:06.497Z,11.57
2017-09-15T10:44:33.978Z,12.00
2017-09-15T10:47:01.438Z,10.50
2017-09-15T10:49:28.910Z,9.77
2017-09-15T10:51:57.162Z,10.50
2017-09-15T10:54:24.720Z,11.47
2017-09-15T10:56:52.167Z,8.07
2017-09-15T10:59:25.318Z,12.57
2017-09-15T11:01:52.783Z,10.80
2017-09-15T11:04:20.278Z,10.70
2017-09-15T11:06:47.734Z,7.07
2017-09-15T11:09:15.186Z,11.27
2017-09-15T11:11:42.666Z,11.17
2017-09-15T11:14:10.157Z,9.90
2017-09-15T11:16:37.646Z,8.90
2017-09-15T11:19:05.105Z,10.50
2017-09-15T11:21:32.565Z,10.60
2017-09-15T11:24:00.058Z,11.00
2017-09-15T11:26:27.527Z,11.63
2017-09-15T11:28:55.838Z,9.70
2017-09-15T11:31:23.314Z,10.10
2017-09-15T11:33:50.844Z,10.77
2017-09-15T11:36:18.298Z,11.03
2017-09-15T11:38:45.786Z,10.27
2017-09-15T11:41:13.245Z,9.50
2017-09-15T11:43:40.704Z,11.40
2017-09-15T11:46:08.182Z,8.83
2017-09-15T11:48:36.443Z,10.60
2017-09-15T11:51:03.908Z,11.27
2017-09-15T11:53:31.365Z,12.10
2017-09-15T11:55:58.854Z,14.30
2017-09-15T11:58:26.330Z,13.10
2017-09-15T12:00:54.557Z,16.37
2017-09-15T12:03:22.045Z,16.67
2017-09-15T12:05:49.541Z,13.43
2017-09-15T12:08:16.986Z,14.97
2017-09-15T12:10:45.215Z,14.93
2017-09-15T12:13:12.694Z,15.70
2017-09-15T12:15:40.154Z,15.60
2017-09-15T12:18:07.628Z,13.07
2017-09-15T12:20:35.850Z,13.80
2017-09-15T12:23:03.309Z,13.80
2017-09-15T12:25:30.824Z,15.70
2017-09-15T12:27:58.319Z,18.53
2017-09-15T12:30:25.797Z,15.60
2017-09-15T12:32:53.245Z,16.43
2017-09-15T12:35:20.706Z,17.13
2017-09-15T12:37:48.193Z,14.77
2017-09-15T12:40:15.666Z,16.20
2017-09-15T12:42:43.142Z,13.00
2017-09-15T12:45:11.382Z,9.80
2017-09-15T12:47:38.836Z,10.80
2017-09-15T12:50:06.407Z,10.57
2017-09-15T12:52:33.861Z,8.83
2017-09-15T12:55:01.309Z,7.47
2017-09-15T12:57:28.788Z,10.23
2017-09-15T12:59:56.241Z,8.80
2017-09-15T13:02:23.702Z,9.37
2017-09-15T13:04:51.206Z,8.13
2017-09-15T13:07:18.663Z,8.80
2017-09-15T13:09:46.114Z,7.63
2017-09-15T13:12:13.593Z,7.17
2017-09-15T13:14:41.066Z,8.20
2017-09-15T13:17:08.567Z,8.40
2017-09-15T13:19:36.077Z,10.50
2017-09-15T13:22:03.541Z,8.73
2017-09-15T13:24:31.058Z,8.20
2017-09-15T13:26:58.522Z,8.43
2017-09-15T13:29:25.993Z,9.77
2017-09-15T13:31:53.476Z,10.37
2017-09-15T13:34:20.917Z,9.20
2017-09-15T13:36:48.394Z,9.07
2017-09-15T13:39:15.864Z,10.20
2017-09-15T13:41:43.346Z,10.17
2017-09-15T13:44:11.593Z,9.50
2017-09-15T13:46:39.054Z,10.80
2017-09-15T13:49:06.542Z,11.10
2017-09-15T13:51:34.759Z,10.63
2017-09-15T13:54:02.233Z,8.63
2017-09-15T13:56:29.722Z,12.50
2017-09-15T13:58:57.204Z,10.63
2017-09-15T14:01:24.660Z,6.97
2017-09-15T14:03:52.918Z,4.87
2017-09-15T14:06:20.374Z,4.20
2017-09-15T14:08:47.823Z,5.27
2017-09-15T14:11:15.299Z,5.87
2017-09-15T14:13:42.792Z,5.90
2017-09-15T14:16:10.246Z,4.70
2017-09-15T14:18:37.767Z,4.40
2017-09-15T14:21:05.330Z,4.10
2017-09-15T14:23:32.773Z,4.50
2017-09-15T14:26:00.293Z,3.70
2017-09-15T14:28:27.733Z,4.30
2017-09-15T14:30:55.181Z,3.30
2017-09-15T14:33:22.674Z,3.60
2017-09-15T14:35:50.143Z,3.93
2017-09-15T14:38:17.577Z,5.20
2017-09-15T14:40:45.057Z,5.13
2017-09-15T14:43:12.515Z,3.97
2017-09-15T14:45:39.991Z,4.37
2017-09-15T14:48:07.461Z,4.33
2017-09-15T14:50:34.937Z,4.00
2017-09-15T14:53:03.152Z,5.33
2017-09-15T14:55:30.613Z,5.90
2017-09-15T14:57:58.116Z,4.70
2017-09-15T15:00:25.566Z,4.87
2017-09-15T15:02:53.806Z,3.90
2017-09-15T15:05:21.283Z,3.80
2017-09-15T15:07:49.497Z,3.70
2017-09-15T15:10:17.066Z,2.30
2017-09-15T15:12:45.337Z,2.13
2017-09-15T15:15:13.578Z,2.43
2017-09-15T15:17:41.035Z,2.03
2017-09-15T15:20:08.486Z,2.10
2017-09-15T15:22:35.974Z,2.77
2017-09-15T15:25:04.256Z,2.40
2017-09-15T15:27:31.744Z,2.40
2017-09-15T15:29:59.222Z,1.60
2017-09-15T15:32:26.681Z,1.90
2017-09-15T15:34:54.165Z,1.70
2017-09-15T15:37:21.641Z,1.80
2017-09-15T15:39:49.108Z,2.50
2017-09-15T15:42:17.337Z,1.87
2017-09-15T15:44:44.815Z,1.73
2017-09-15T15:47:12.264Z,2.10
2017-09-15T15:49:39.751Z,1.70
2017-09-15T15:52:07.203Z,1.97
2017-09-15T15:54:34.654Z,1.67
2017-09-15T15:57:02.126Z,1.87
2017-09-15T15:59:29.573Z,1.60
2017-09-15T16:01:57.064Z,1.83
2017-09-15T16:04:24.505Z,2.30
2017-09-15T16:06:51.965Z,2.90
2017-09-15T16:09:19.538Z,2.60
2017-09-15T16:11:47.754Z,3.10
2017-09-15T16:14:15.218Z,3.13
2017-09-15T16:16:42.668Z,3.13
2017-09-15T16:19:10.149Z,2.80
2017-09-15T16:21:37.604Z,3.97
2017-09-15T16:24:05.058Z,3.70
2017-09-15T16:26:32.558Z,3.70
2017-09-15T16:29:00.760Z,3.40
2017-09-15T16:31:28.249Z,3.60
2017-09-15T16:33:55.706Z,4.70
2017-09-15T16:36:23.165Z,4.37
2017-09-15T16:38:56.368Z,4.90
2017-09-15T16:41:29.402Z,3.93
2017-09-15T16:44:02.623Z,4.20
2017-09-15T16:46:35.679Z,3.93
2017-09-15T16:49:08.877Z,3.40
2017-09-15T16:51:36.362Z,3.17
2017-09-15T16:54:06.832Z,3.17
2017-09-15T16:56:35.058Z,2.50
2017-09-15T16:59:02.509Z,2.63
2017-09-15T17:01:30.000Z,1.90
2017-09-15T17:03:57.470Z,1.60
2017-09-15T17:06:24.926Z,2.00
2017-09-15T17:08:52.437Z,1.50
2017-09-15T17:11:19.891Z,1.53
2017-09-15T17:13:47.383Z,1.83
2017-09-15T17:16:14.928Z,2.00
2017-09-15T17:18:42.422Z,1.57
2017-09-15T17:21:09.882Z,1.27
2017-09-15T17:23:37.392Z,1.63
2017-09-15T17:26:04.840Z,1.60
2017-09-15T17:28:32.318Z,1.90
2017-09-15T17:30:59.776Z,1.77
2017-09-15T17:33:27.288Z,2.23
2017-09-15T17:35:54.742Z,2.30
2017-09-15T17:38:22.999Z,2.40
2017-09-15T17:40:50.602Z,2.40
2017-09-15T17:43:18.723Z,4.13
2017-09-15T17:45:46.468Z,4.37
2017-09-15T17:48:14.368Z,3.00
2017-09-15T17:50:42.799Z,3.50
2017-09-15T17:53:11.290Z,3.33
2017-09-15T17:55:39.024Z,3.33
2017-09-15T17:58:06.752Z,3.23
2017-09-15T18:00:35.141Z,3.33
2017-09-15T18:03:03.509Z,3.33
2017-09-15T18:05:30.996Z,3.77
2017-09-15T18:07:58.481Z,3.77
2017-09-15T18:10:25.974Z,4.50
2017-09-15T18:12:53.440Z,4.63
2017-09-15T18:15:20.922Z,4.33
2017-09-15T18:17:48.394Z,5.17
2017-09-15T18:20:15.867Z,4.13
2017-09-15T18:22:43.313Z,4.13
2017-09-15T18:25:10.794Z,4.40
2017-09-15T18:27:38.245Z,4.63
2017-09-15T18:30:05.821Z,3.70
2017-09-15T18:32:33.270Z,4.40
2017-09-15T18:35:00.770Z,5.13
2017-09-15T18:37:28.231Z,4.83
2017-09-15T18:39:55.700Z,4.80
2017-09-15T18:42:23.176Z,5.40
2017-09-15T18:44:50.691Z,5.53
2017-09-15T18:47:18.246Z,5.47
2017-09-15T18:49:45.886Z,5.60
2017-09-15T18:52:15.185Z,6.20
2017-09-15T18:54:42.990Z,6.17
2017-09-15T18:57:11.192Z,6.87
2017-09-15T18:59:38.678Z,5.50
2017-09-15T19:02:06.930Z,6.60
2017-09-15T19:04:34.537Z,7.37
2017-09-15T19:07:02.821Z,6.22
2017-09-15T19:09:30.430Z,7.93
2017-09-15T19:11:57.983Z,7.20
2017-09-15T19:14:26.254Z,7.73
2017-09-15T19:16:53.740Z,8.00
2017-09-15T19:19:21.332Z,7.30
2017-09-15T19:21:49.670Z,7.40
2017-09-15T19:24:17.953Z,7.97
2017-09-15T19:26:46.209Z,8.10
2017-09-15T19:29:13.725Z,7.87
2017-09-15T19:31:41.578Z,8.57
2017-09-15T19:34:09.137Z,9.27
2017-09-15T19:36:36.587Z,7.87
2017-09-15T19:39:04.088Z,7.53
2017-09-15T19:41:31.549Z,9.90
2017-09-15T19:43:59.045Z,8.53
2017-09-15T19:46:26.542Z,8.17
2017-09-15T19:48:54.086Z,9.30
2017-09-15T19:51:21.539Z,9.10
2017-09-15T19:53:49.110Z,7.87
2017-09-15T19:56:16.613Z,8.30
2017-09-15T19:58:44.091Z,9.20
2017-09-15T20:01:11.596Z,8.17
2017-09-15T20:03:39.097Z,8.43
2017-09-15T20:06:06.572Z,7.67
2017-09-15T20:08:34.061Z,8.00
2017-09-15T20:11:01.557Z,8.60
2017-09-15T20:13:29.035Z,8.30
2017-09-15T20:15:56.502Z,7.75
2017-09-15T20:18:24.000Z,9.03
2017-09-15T20:20:51.528Z,8.33
2017-09-15T20:23:18.973Z,9.20
2017-09-15T20:25:46.449Z,8.10
2017-09-15T20:28:13.943Z,8.60
2017-09-15T20:30:41.421Z,7.77
2017-09-15T20:33:08.873Z,8.23
2017-09-15T20:35:36.374Z,8.77
2017-09-15T20:38:03.821Z,7.23
2017-09-15T20:40:31.296Z,9.00
2017-09-15T20:42:59.629Z,8.63
2017-09-15T20:45:27.106Z,7.90
2017-09-15T20:47:54.730Z,8.90
2017-09-15T20:50:22.222Z,8.33
2017-09-15T20:52:49.697Z,7.90
2017-09-15T20:55:17.173Z,8.90
2017-09-15T20:57:44.629Z,8.10
2017-09-15T21:00:12.114Z,8.20
2017-09-15T21:02:39.593Z,8.90
2017-09-15T21:05:07.061Z,8.23
2017-09-15T21:07:34.583Z,8.20
2017-09-15T21:10:02.069Z,7.33
2017-09-15T21:12:29.522Z,8.80
2017-09-15T21:14:57.007Z,8.20
2017-09-15T21:17:24.489Z,7.70
2017-09-15T21:19:52.278Z,7.93
2017-09-15T21:22:19.802Z,7.67
2017-09-15T21:24:47.345Z,7.63
2017-09-15T21:27:14.844Z,7.87
2017-09-15T21:29:43.065Z,7.90
2017-09-15T21:32:11.377Z,7.03
2017-09-15T21:34:38.858Z,8.47
2017-09-15T21:37:07.114Z,6.67
2017-09-15T21:39:34.598Z,8.33
2017-09-15T21:42:02.821Z,8.20
2017-09-15T21:44:30.343Z,8.23
2017-09-15T21:46:58.797Z,7.27
2017-09-15T21:49:26.481Z,7.47
2017-09-15T21:51:54.127Z,7.67
2017-09-15T21:54:21.720Z,7.77
2017-09-15T21:56:49.209Z,8.13
2017-09-15T21:59:17.776Z,7.73
2017-09-15T22:01:45.227Z,7.33
2017-09-15T22:04:18.306Z,7.80
2017-09-15T22:06:45.762Z,7.97
2017-09-15T22:09:13.216Z,8.10
2017-09-15T22:11:40.700Z,6.67
2017-09-15T22:14:08.184Z,7.77
2017-09-15T22:16:35.642Z,7.63
2017-09-15T22:19:03.162Z,6.00
2017-09-15T22:21:30.614Z,6.53
2017-09-15T22:23:58.245Z,7.13
2017-09-15T22:26:26.494Z,7.33
2017-09-15T22:28:53.974Z,6.93
2017-09-15T22:31:21.421Z,6.70
2017-09-15T22:33:48.903Z,6.83
2017-09-15T22:36:18.046Z,7.03
2017-09-15T22:38:45.526Z,6.30
2017-09-15T22:41:12.986Z,7.33
2017-09-15T22:43:40.454Z,6.03
2017-09-15T22:46:07.946Z,6.53
2017-09-15T22:48:35.493Z,7.20
2017-09-15T22:51:03.715Z,6.53
2017-09-15T22:53:31.185Z,6.90
2017-09-15T22:55:58.646Z,6.80
2017-09-15T22:58:26.274Z,7.20
2017-09-15T23:00:53.727Z,6.80
2017-09-15T23:03:21.194Z,6.70
2017-09-15T23:05:48.646Z,6.07
2017-09-15T23:08:16.145Z,6.97
2017-09-15T23:10:43.593Z,6.03
2017-09-15T23:13:11.841Z,6.23
2017-09-15T23:15:39.294Z,6.70
2017-09-15T23:18:06.821Z,6.55
2017-09-15T23:20:34.773Z,6.45
2017-09-15T23:23:02.395Z,5.73
2017-09-15T23:25:29.928Z,4.90
2017-09-15T23:27:57.421Z,5.57
2017-09-15T23:30:25.019Z,6.50
2017-09-15T23:32:52.585Z,6.30
2017-09-15T23:35:20.071Z,6.53
2017-09-15T23:37:49.339Z,6.20
2017-09-15T23:40:16.800Z,6.90
2017-09-15T23:42:44.295Z,6.67
2017-09-15T23:45:11.786Z,7.00
2017-09-15T23:47:39.242Z,6.60
2017-09-15T23:50:06.721Z,8.97
2017-09-15T23:52:34.221Z,6.33
2017-09-15T23:55:02.453Z,6.73
2017-09-15T23:57:29.909Z,7.53
2017-09-15T23:59:57.382Z,6.23
